Time;durP1;ratioP1;P1;durP2;ratioP2;P2;SDS_P1;SDS_P2;PMS_P1;PMS_P2;Temp;Humidity;BMP_temperature;BMP_pressure;BME280_temperature;BME280_humidity;BME280_pressure;Samples;Min_cycle;Max_cycle;Signal;HPM_P1;HPM_P2
2024/03/12 00:02:36;;;;;;;2.88;1.63;;;;;;;;;;7433190;19;20284;-84
2024/03/12 00:05:23;;;;;;;4.50;2.58;;;;;;;;;;7432038;19;19911;-84
2024/03/12 00:08:10;;;;;;;4.78;2.63;;;;;;;;;;7434510;19;19915;-84
2024/03/12 00:10:55;;;;;;;6.95;2.42;;;;;;;;;;7434559;19;19918;-84
2024/03/12 00:13:43;;;;;;;4.68;2.03;;;;;;;;;;7434100;19;19914;-84
2024/03/12 00:16:34;;;;;;;4.03;2.40;;;;;;;;;;7432132;19;19918;-84
2024/03/12 00:19:20;;;;;;;5.47;3.00;;;;;;;;;;7433713;19;20017;-84
2024/03/12 00:22:07;;;;;;;4.80;2.80;;;;;;;;;;7434317;19;19917;-82
2024/03/12 00:24:52;;;;;;;4.07;2.58;;;;;;;;;;7434768;19;19952;-82
2024/03/12 00:27:40;;;;;;;4.88;2.35;;;;;;;;;;7433772;19;19922;-81
2024/03/12 00:30:30;;;;;;;5.13;2.35;;;;;;;;;;7434558;19;19921;-82
2024/03/12 00:33:18;;;;;;;3.53;2.33;;;;;;;;;;7435200;19;19917;-81
2024/03/12 00:36:05;;;;;;;6.22;2.75;;;;;;;;;;7432811;19;19950;-82
2024/03/12 00:38:49;;;;;;;5.65;3.20;;;;;;;;;;7435344;19;19925;-82
2024/03/12 00:41:37;;;;;;;6.35;3.13;;;;;;;;;;7435617;19;19922;-82
2024/03/12 00:44:21;;;;;;;4.85;2.63;;;;;;;;;;7435052;19;19943;-81
2024/03/12 00:47:05;;;;;;;8.43;2.53;;;;;;;;;;7406698;19;19919;-79
2024/03/12 00:49:52;;;;;;;;;;;;;;;;;;7414336;19;19933;-79
2024/03/12 00:52:39;;;;;;;;;;;;;;;;;;7412520;19;19907;-79
2024/03/12 00:55:24;;;;;;;5.47;2.45;;;;;;;;;;7411119;19;20245;-79
2024/03/12 00:58:13;;;;;;;5.28;2.45;;;;;;;;;;7411815;19;19914;-79
2024/03/12 01:00:57;;;;;;;7.45;2.72;;;;;;;;;;7414010;19;19919;-80
2024/03/12 01:03:46;;;;;;;4.32;2.35;;;;;;;;;;7419420;19;19918;-80
2024/03/12 01:06:34;;;;;;;5.43;2.58;;;;;;;;;;7414258;19;20595;-80
2024/03/12 01:09:21;;;;;;;5.07;2.53;;;;;;;;;;7442790;19;19915;-80
2024/03/12 01:12:11;;;;;;;6.95;2.63;;;;;;;;;;7447240;19;19906;-80
2024/03/12 01:14:55;;;;;;;4.57;2.35;;;;;;;;;;7421983;19;19921;-80
2024/03/12 01:17:42;;;;;;;3.88;2.13;;;;;;;;;;7415391;19;19922;-80
2024/03/12 01:20:27;;;;;;;3.40;2.38;;;;;;;;;;7413941;19;19935;-80
2024/03/12 01:23:16;;;;;;;4.05;2.10;;;;;;;;;;7414256;19;19925;-80
2024/03/12 01:26:07;;;;;;;4.05;2.00;;;;;;;;;;7412814;19;19915;-80
2024/03/12 01:28:51;;;;;;;2.92;1.85;;;;;;;;;;7414691;19;19919;-80
2024/03/12 01:31:35;;;;;;;2.97;2.15;;;;;;;;;;7412969;19;19926;-80
2024/03/12 01:34:23;;;;;;;3.60;2.00;;;;;;;;;;7415953;19;20594;-80
2024/03/12 01:37:15;;;;;;;2.67;1.90;;;;;;;;;;7414342;19;19938;-79
2024/03/12 01:40:19;;;;;;;3.88;2.13;;;;;;;;;;7430649;19;19940;-79
2024/03/12 01:43:06;;;;;;;4.70;2.13;;;;;;;;;;7430446;19;19911;-78
2024/03/12 01:45:52;;;;;;;8.68;2.03;;;;;;;;;;7422707;19;19922;-78
2024/03/12 01:48:38;;;;;;;3.80;2.17;;;;;;;;;;7408948;19;20475;-78
2024/03/12 01:51:22;;;;;;;1.80;1.35;;;;;;;;;;7413848;19;19915;-78
2024/03/12 01:54:09;;;;;;;3.70;2.38;;;;;;;;;;7412526;19;19911;-78
2024/03/12 01:56:59;;;;;;;2.50;1.70;;;;;;;;;;7410443;19;19926;-78
2024/03/12 01:59:45;;;;;;;4.30;2.15;;;;;;;;;;7413086;19;19906;-78
2024/03/12 02:02:32;;;;;;;4.78;2.20;;;;;;;;;;7413741;19;19914;-79
2024/03/12 02:05:21;;;;;;;7.78;2.30;;;;;;;;;;7413169;19;19938;-79
2024/03/12 02:08:06;;;;;;;5.05;2.10;;;;;;;;;;7410487;19;19911;-79
2024/03/12 02:10:53;;;;;;;5.68;2.90;;;;;;;;;;7411640;19;19914;-79
2024/03/12 02:13:42;;;;;;;4.18;2.63;;;;;;;;;;7411330;19;19918;-79
2024/03/12 02:16:29;;;;;;;6.38;2.47;;;;;;;;;;7409942;19;19915;-79
2024/03/12 02:19:17;;;;;;;4.20;2.67;;;;;;;;;;7413415;19;19930;-78
2024/03/12 02:22:01;;;;;;;3.83;2.60;;;;;;;;;;7413519;19;19917;-78
2024/03/12 02:24:52;;;;;;;4.28;2.28;;;;;;;;;;7412477;19;19919;-78
2024/03/12 02:27:39;;;;;;;;;;;;;;;;;;7412664;19;19914;-78
2024/03/12 02:30:27;;;;;;;3.80;2.10;;;;;;;;;;7412573;19;19918;-78
2024/03/12 02:33:11;;;;;;;3.88;2.45;;;;;;;;;;7413845;19;19922;-78
2024/03/12 02:35:55;;;;;;;;;;;;;;;;;;7412154;19;19938;-78
2024/03/12 02:38:39;;;;;;;4.20;1.98;;;;;;;;;;7409663;19;20264;-78
2024/03/12 02:41:27;;;;;;;5.38;2.80;;;;;;;;;;7413167;19;19956;-78
2024/03/12 02:44:14;;;;;;;4.72;2.83;;;;;;;;;;7412416;19;19907;-78
2024/03/12 02:46:59;;;;;;;6.50;2.40;;;;;;;;;;7408138;19;19910;-78
2024/03/12 02:49:43;;;;;;;6.13;2.42;;;;;;;;;;7411670;19;19927;-78
2024/03/12 02:52:27;;;;;;;;;;;;;;;;;;7415851;19;19917;-78
2024/03/12 02:55:19;;;;;;;3.70;2.38;;;;;;;;;;7412366;19;19966;-78
2024/03/12 02:58:10;;;;;;;4.70;2.72;;;;;;;;;;7410533;19;19923;-78
2024/03/12 03:00:57;;;;;;;5.25;2.55;;;;;;;;;;7409651;19;19926;-78
2024/03/12 03:03:41;;;;;;;;;;;;;;;;;;7413867;19;19966;-78
2024/03/12 03:06:28;;;;;;;3.38;2.30;;;;;;;;;;7411374;19;19914;-78
2024/03/12 03:09:16;;;;;;;7.18;2.95;;;;;;;;;;7410703;19;19995;-78
2024/03/12 03:12:04;;;;;;;3.90;2.67;;;;;;;;;;7413490;19;20341;-78
2024/03/12 03:14:54;;;;;;;3.65;2.53;;;;;;;;;;7410511;19;19911;-78
2024/03/12 03:17:42;;;;;;;4.18;2.53;;;;;;;;;;7410408;19;19911;-78
2024/03/12 03:20:31;;;;;;;4.43;2.60;;;;;;;;;;7412754;19;19910;-78
2024/03/12 03:23:15;;;;;;;2.78;2.17;;;;;;;;;;7408410;19;19918;-78
2024/03/12 03:26:00;;;;;;;5.03;2.85;;;;;;;;;;7409463;19;19915;-78
2024/03/12 03:28:44;;;;;;;;;;;;;;;;;;7437671;19;19907;-77
2024/03/12 03:31:35;;;;;;;4.43;1.85;;;;;;;;;;7439820;19;19951;-77
2024/03/12 03:34:21;;;;;;;3.17;2.33;;;;;;;;;;7411601;19;19925;-77
2024/03/12 03:37:09;;;;;;;3.72;2.22;;;;;;;;;;7409496;19;19926;-77
2024/03/12 03:39:56;;;;;;;4.47;2.20;;;;;;;;;;7410654;19;19903;-77
2024/03/12 03:42:42;;;;;;;4.03;2.72;;;;;;;;;;7407656;19;20274;-77
2024/03/12 03:45:30;;;;;;;3.25;2.33;;;;;;;;;;7409739;19;19918;-77
2024/03/12 03:48:19;;;;;;;5.15;3.05;;;;;;;;;;7407186;19;19931;-77
2024/03/12 03:51:08;;;;;;;4.18;2.40;;;;;;;;;;7410747;19;19926;-77
2024/03/12 03:53:52;;;;;;;4.63;2.83;;;;;;;;;;7407403;19;19922;-77
2024/03/12 03:56:37;;;;;;;4.03;2.53;;;;;;;;;;7407520;19;19947;-77
2024/03/12 03:59:21;;;;;;;4.82;3.10;;;;;;;;;;7408495;19;20898;-77
2024/03/12 04:02:11;;;;;;;5.18;2.42;;;;;;;;;;7407639;19;19927;-77
2024/03/12 04:05:01;;;;;;;5.40;2.70;;;;;;;;;;7408311;19;19918;-77
2024/03/12 04:07:46;;;;;;;4.88;2.40;;;;;;;;;;7406269;19;19970;-77
2024/03/12 04:10:30;;;;;;;2.92;2.25;;;;;;;;;;7407636;19;19914;-77
2024/03/12 04:13:17;;;;;;;4.25;2.72;;;;;;;;;;7406747;19;19919;-77
2024/03/12 04:16:03;;;;;;;5.63;3.55;;;;;;;;;;7406390;19;20258;-77
2024/03/12 04:18:52;;;;;;;6.65;3.42;;;;;;;;;;7406980;19;19914;-77
2024/03/12 04:21:43;;;;;;;6.53;3.78;;;;;;;;;;7406756;19;19910;-77
2024/03/12 04:24:30;;;;;;;7.68;3.03;;;;;;;;;;7407835;19;19914;-77
2024/03/12 04:27:16;;;;;;;7.05;3.60;;;;;;;;;;7403013;19;19938;-78
2024/03/12 04:30:04;;;;;;;5.28;2.95;;;;;;;;;;7407118;19;19919;-78
2024/03/12 04:32:48;;;;;;;5.75;2.47;;;;;;;;;;7406792;19;19938;-78
2024/03/12 04:35:32;;;;;;;4.97;2.95;;;;;;;;;;7412780;19;19941;-78
2024/03/12 04:38:21;;;;;;;5.45;2.60;;;;;;;;;;7415916;19;19925;-78
2024/03/12 04:41:06;;;;;;;5.03;2.80;;;;;;;;;;7414418;19;19926;-78
2024/03/12 04:43:50;;;;;;;4.22;2.50;;;;;;;;;;7414430;19;19911;-78
2024/03/12 04:46:34;;;;;;;5.55;2.90;;;;;;;;;;7414333;19;19911;-77
2024/03/12 04:49:19;;;;;;;5.43;2.65;;;;;;;;;;7414005;19;19915;-78
2024/03/12 04:52:03;;;;;;;7.85;3.42;;;;;;;;;;7416284;19;19923;-78
2024/03/12 04:54:50;;;;;;;4.93;2.67;;;;;;;;;;7415566;19;20467;-78
2024/03/12 04:57:39;;;;;;;6.13;2.65;;;;;;;;;;7414090;19;19923;-78
2024/03/12 05:00:23;;;;;;;4.97;2.78;;;;;;;;;;7415335;19;19954;-78
2024/03/12 05:03:08;;;;;;;4.70;2.42;;;;;;;;;;7415604;19;19919;-78
2024/03/12 05:05:52;;;;;;;7.15;3.20;;;;;;;;;;7415492;19;19913;-78
2024/03/12 05:08:39;;;;;;;3.95;2.25;;;;;;;;;;7412511;19;20253;-79
2024/03/12 05:11:26;;;;;;;5.38;2.78;;;;;;;;;;7415638;19;20278;-79
2024/03/12 05:14:10;;;;;;;3.85;2.80;;;;;;;;;;7415984;19;19915;-78
2024/03/12 05:16:59;;;;;;;4.75;2.75;;;;;;;;;;7413264;19;19918;-78
2024/03/12 05:19:45;;;;;;;6.90;3.03;;;;;;;;;;7412383;19;19930;-78
2024/03/12 05:22:29;;;;;;;4.03;2.47;;;;;;;;;;7416837;19;19978;-78
2024/03/12 05:25:22;;;;;;;3.90;2.33;;;;;;;;;;7444683;19;19915;-78
2024/03/12 05:28:09;;;;;;;4.10;2.33;;;;;;;;;;7441939;19;19938;-78
2024/03/12 05:30:54;;;;;;;6.57;3.10;;;;;;;;;;7445823;19;19910;-78
2024/03/12 05:33:38;;;;;;;4.43;2.58;;;;;;;;;;7447678;19;19915;-78
2024/03/12 05:36:24;;;;;;;5.75;3.08;;;;;;;;;;7444674;19;19911;-78
2024/03/12 05:39:19;;;;;;;4.97;2.72;;;;;;;;;;7434106;19;19922;-78
2024/03/12 05:48:12;;;;;;;6.78;3.65;;;;;;;;;;7412797;19;19958;-78
2024/03/12 05:50:56;;;;;;;7.03;3.38;;;;;;;;;;7428150;19;19948;-77
2024/03/12 05:53:41;;;;;;;9.95;4.55;;;;;;;;;;7425519;19;20309;-77
2024/03/12 05:56:29;;;;;;;8.52;3.17;;;;;;;;;;7414504;19;20313;-77
2024/03/12 05:59:14;;;;;;;7.25;3.50;;;;;;;;;;7415343;19;19914;-77
2024/03/12 06:02:01;;;;;;;8.27;3.88;;;;;;;;;;7415083;19;19950;-77
2024/03/12 06:04:46;;;;;;;6.68;4.35;;;;;;;;;;7415557;19;19918;-77
2024/03/12 06:07:30;;;;;;;5.03;3.03;;;;;;;;;;7413637;19;19921;-77
2024/03/12 06:10:14;;;;;;;6.40;3.50;;;;;;;;;;7413973;19;20006;-77
2024/03/12 06:13:01;;;;;;;7.03;3.53;;;;;;;;;;7414558;19;19914;-77
2024/03/12 06:15:45;;;;;;;6.50;3.53;;;;;;;;;;7413252;19;19942;-77
2024/03/12 06:18:34;;;;;;;6.22;3.55;;;;;;;;;;7411327;19;19915;-78
2024/03/12 06:21:21;;;;;;;5.60;3.70;;;;;;;;;;7412149;19;19927;-78
2024/03/12 06:24:09;;;;;;;6.68;3.70;;;;;;;;;;7413395;19;19915;-78
2024/03/12 06:27:01;;;;;;;6.53;3.30;;;;;;;;;;7415527;19;19915;-78
2024/03/12 06:29:49;;;;;;;5.88;3.30;;;;;;;;;;7415198;19;19918;-78
2024/03/12 06:32:35;;;;;;;5.78;3.65;;;;;;;;;;7417659;19;20342;-78
2024/03/12 06:35:22;;;;;;;7.05;3.78;;;;;;;;;;7414280;19;19921;-78
2024/03/12 06:38:07;;;;;;;7.53;3.33;;;;;;;;;;7414876;19;19923;-78
2024/03/12 06:40:52;;;;;;;6.28;3.35;;;;;;;;;;7415737;19;19933;-78
2024/03/12 06:43:40;;;;;;;5.88;3.40;;;;;;;;;;7415757;19;19994;-78
2024/03/12 06:46:25;;;;;;;6.10;3.10;;;;;;;;;;7412950;19;19926;-78
2024/03/12 06:49:14;;;;;;;8.43;3.83;;;;;;;;;;7410255;19;19922;-80
2024/03/12 06:52:02;;;;;;;5.80;3.00;;;;;;;;;;7416481;19;19921;-80
2024/03/12 06:54:48;;;;;;;10.90;4.03;;;;;;;;;;7417192;19;19954;-80
2024/03/12 06:57:36;;;;;;;7.53;3.42;;;;;;;;;;7412670;19;19929;-80
2024/03/12 07:00:26;;;;;;;8.88;3.97;;;;;;;;;;7413200;19;19926;-80
2024/03/12 07:03:10;;;;;;;;;;;;;;;;;;7417169;19;19918;-82
2024/03/12 07:05:58;;;;;;;5.70;3.42;;;;;;;;;;7419271;19;19917;-82
2024/03/12 07:08:50;;;;;;;8.45;3.85;;;;;;;;;;7411577;19;19918;-82
2024/03/12 07:11:39;;;;;;;8.13;4.10;;;;;;;;;;7424363;19;19951;-82
2024/03/12 07:14:27;;;;;;;7.35;3.53;;;;;;;;;;7425449;19;19918;-82
2024/03/12 07:17:15;;;;;;;6.82;3.42;;;;;;;;;;7424137;19;19978;-82
2024/03/12 07:20:10;;;;;;;8.52;4.63;;;;;;;;;;7424455;19;19933;-82
2024/03/12 07:22:56;;;;;;;9.13;3.83;;;;;;;;;;7419314;19;19924;-82
2024/03/12 07:25:49;;;;;;;7.15;3.65;;;;;;;;;;7419277;19;19918;-82
2024/03/12 07:28:38;;;;;;;7.43;4.28;;;;;;;;;;7416902;19;19922;-82
2024/03/12 07:31:26;;;;;;;11.05;3.97;;;;;;;;;;7421566;19;19918;-82
2024/03/12 07:34:14;;;;;;;6.90;3.85;;;;;;;;;;7419973;19;19922;-82
2024/03/12 07:37:00;;;;;;;7.85;3.70;;;;;;;;;;7418969;19;20289;-82
2024/03/12 07:39:49;;;;;;;9.93;4.53;;;;;;;;;;7419405;19;19915;-82
2024/03/12 07:42:41;;;;;;;12.00;4.78;;;;;;;;;;7417036;19;20011;-82
2024/03/12 07:45:26;;;;;;;7.80;4.18;;;;;;;;;;7416844;19;19914;-82
2024/03/12 07:48:10;;;;;;;9.48;4.15;;;;;;;;;;7415650;19;19929;-82
2024/03/12 07:51:00;;;;;;;7.32;3.95;;;;;;;;;;7416745;19;19919;-82
2024/03/12 07:53:46;;;;;;;9.32;4.30;;;;;;;;;;7415904;19;19922;-82
2024/03/12 07:56:35;;;;;;;12.50;5.45;;;;;;;;;;7413023;19;19914;-82
2024/03/12 07:59:23;;;;;;;9.60;4.47;;;;;;;;;;7414178;19;19911;-82
2024/03/12 08:02:11;;;;;;;9.25;4.13;;;;;;;;;;7414588;19;19920;-82
2024/03/12 08:04:56;;;;;;;10.07;5.10;;;;;;;;;;7416944;19;19917;-82
2024/03/12 08:07:44;;;;;;;8.63;4.32;;;;;;;;;;7415873;19;19918;-82
2024/03/12 08:10:31;;;;;;;7.68;3.95;;;;;;;;;;7419569;19;19915;-82
2024/03/12 08:13:15;;;;;;;10.73;4.93;;;;;;;;;;7422182;19;19923;-82
2024/03/12 08:16:03;;;;;;;10.77;4.20;;;;;;;;;;7422854;19;19911;-82
2024/03/12 08:18:49;;;;;;;10.38;4.15;;;;;;;;;;7423600;19;19914;-82
2024/03/12 08:21:34;;;;;;;7.28;4.05;;;;;;;;;;7422487;19;19937;-82
2024/03/12 08:24:21;;;;;;;11.02;4.13;;;;;;;;;;7421724;19;19933;-82
2024/03/12 08:27:06;;;;;;;11.65;4.65;;;;;;;;;;7422317;19;19918;-82
2024/03/12 08:29:53;;;;;;;8.32;3.60;;;;;;;;;;7420344;19;19922;-82
2024/03/12 08:32:41;;;;;;;13.13;4.38;;;;;;;;;;7421193;19;19922;-81
2024/03/12 08:35:25;;;;;;;8.32;4.13;;;;;;;;;;7418603;19;19919;-82
2024/03/12 08:38:12;;;;;;;7.93;3.85;;;;;;;;;;7418978;19;20353;-82
2024/03/12 08:40:58;;;;;;;11.63;5.63;;;;;;;;;;7418002;19;19930;-82
2024/03/12 08:43:45;;;;;;;7.28;3.75;;;;;;;;;;7420015;19;20351;-82
2024/03/12 08:46:31;;;;;;;7.43;3.88;;;;;;;;;;7418251;19;19925;-82
2024/03/12 08:49:20;;;;;;;9.32;4.45;;;;;;;;;;7419395;19;19913;-82
2024/03/12 08:52:07;;;;;;;8.60;4.47;;;;;;;;;;7420389;19;20375;-82
2024/03/12 08:54:57;;;;;;;8.75;4.15;;;;;;;;;;7413031;19;19977;-82
2024/03/12 08:57:44;;;;;;;10.40;4.63;;;;;;;;;;7417771;19;19915;-82
2024/03/12 09:00:30;;;;;;;8.32;4.82;;;;;;;;;;7421402;19;20007;-82
2024/03/12 09:03:15;;;;;;;11.55;5.15;;;;;;;;;;7422471;19;19917;-82
2024/03/12 09:06:02;;;;;;;11.60;4.88;;;;;;;;;;7422106;19;19948;-82
2024/03/12 09:08:49;;;;;;;12.27;5.70;;;;;;;;;;7419969;19;20334;-82
2024/03/12 09:11:38;;;;;;;16.70;6.35;;;;;;;;;;7422075;19;19927;-82
2024/03/12 09:14:25;;;;;;;9.20;5.63;;;;;;;;;;7421231;19;19919;-82
2024/03/12 09:17:14;;;;;;;10.82;5.45;;;;;;;;;;7419171;19;19952;-82
2024/03/12 09:20:01;;;;;;;9.85;5.32;;;;;;;;;;7419671;19;19918;-82
2024/03/12 09:22:50;;;;;;;9.20;4.75;;;;;;;;;;7419770;19;19918;-82
2024/03/12 09:25:37;;;;;;;12.68;5.88;;;;;;;;;;7419666;19;19914;-82
2024/03/12 09:28:26;;;;;;;10.40;5.57;;;;;;;;;;7416495;19;19914;-82
2024/03/12 09:31:13;;;;;;;10.25;5.00;;;;;;;;;;7420281;19;19954;-82
2024/03/12 09:33:59;;;;;;;12.60;5.38;;;;;;;;;;7420285;19;20328;-82
2024/03/12 09:36:45;;;;;;;11.95;5.88;;;;;;;;;;7417527;19;20010;-82
2024/03/12 09:39:36;;;;;;;11.25;5.95;;;;;;;;;;7418213;19;19930;-82
2024/03/12 09:42:28;;;;;;;8.30;5.38;;;;;;;;;;7417573;19;19918;-83
2024/03/12 09:45:14;;;;;;;11.70;5.78;;;;;;;;;;7420422;19;20246;-82
2024/03/12 09:48:00;;;;;;;10.32;5.72;;;;;;;;;;7417688;19;19931;-82
2024/03/12 09:50:49;;;;;;;13.00;6.43;;;;;;;;;;7419655;19;20352;-82
2024/03/12 09:53:34;;;;;;;16.10;7.82;;;;;;;;;;7420090;19;19923;-82
2024/03/12 09:56:25;;;;;;;10.20;6.22;;;;;;;;;;7417835;19;20610;-82
2024/03/12 09:59:13;;;;;;;10.82;5.93;;;;;;;;;;7419859;19;20385;-82
2024/03/12 10:02:01;;;;;;;12.32;5.80;;;;;;;;;;7418778;19;19914;-82
2024/03/12 10:04:45;;;;;;;10.77;6.07;;;;;;;;;;7420825;19;19937;-82
2024/03/12 10:07:30;;;;;;;11.55;5.30;;;;;;;;;;7419360;19;19941;-82
2024/03/12 10:10:19;;;;;;;9.05;4.90;;;;;;;;;;7417482;19;19922;-82
2024/03/12 10:13:14;;;;;;;9.35;4.60;;;;;;;;;;7420460;19;19910;-82
2024/03/12 10:16:00;;;;;;;8.35;4.75;;;;;;;;;;7424632;19;19949;-82
2024/03/12 10:18:47;;;;;;;11.27;4.75;;;;;;;;;;7426968;19;19918;-82
2024/03/12 10:21:36;;;;;;;9.75;4.28;;;;;;;;;;7427022;19;19920;-82
2024/03/12 10:24:21;;;;;;;9.57;4.63;;;;;;;;;;7421920;19;19927;-82
2024/03/12 10:27:09;;;;;;;8.82;4.47;;;;;;;;;;7416708;19;19970;-82
2024/03/12 10:29:59;;;;;;;12.00;4.80;;;;;;;;;;7414261;19;19923;-82
2024/03/12 10:32:43;;;;;;;10.02;5.30;;;;;;;;;;7414614;19;19922;-82
2024/03/12 10:35:30;;;;;;;11.05;4.63;;;;;;;;;;7414383;19;19922;-82
2024/03/12 10:38:27;;;;;;;12.30;5.88;;;;;;;;;;7414353;19;19974;-81
2024/03/12 10:41:20;;;;;;;10.00;4.78;;;;;;;;;;7415989;19;19949;-82
2024/03/12 10:44:10;;;;;;;11.02;4.57;;;;;;;;;;7416649;19;19943;-82
2024/03/12 10:47:04;;;;;;;10.27;5.00;;;;;;;;;;7419711;19;19922;-83
2024/03/12 10:49:50;;;;;;;12.15;5.55;;;;;;;;;;7420886;19;19903;-82
2024/03/12 10:52:37;;;;;;;14.18;6.38;;;;;;;;;;7422464;19;19954;-82
2024/03/12 10:55:24;;;;;;;13.45;6.13;;;;;;;;;;7419848;19;19906;-82
2024/03/12 10:58:14;;;;;;;14.90;6.57;;;;;;;;;;7417752;19;19962;-82
2024/03/12 11:01:00;;;;;;;16.40;6.82;;;;;;;;;;7418389;19;20363;-81
2024/03/12 11:03:47;;;;;;;15.65;6.50;;;;;;;;;;7419039;19;19922;-82
2024/03/12 11:06:33;;;;;;;14.75;6.45;;;;;;;;;;7416163;19;19933;-83
2024/03/12 11:09:28;;;;;;;14.50;6.93;;;;;;;;;;7418964;19;19918;-82
2024/03/12 11:12:13;;;;;;;16.08;6.97;;;;;;;;;;7417365;19;19982;-82
2024/03/12 11:14:58;;;;;;;15.27;6.95;;;;;;;;;;7416345;19;19934;-82
2024/03/12 11:17:49;;;;;;;15.43;6.95;;;;;;;;;;7417146;19;20369;-82
2024/03/12 11:20:41;;;;;;;15.50;6.70;;;;;;;;;;7418888;19;19910;-82
2024/03/12 11:23:30;;;;;;;16.50;7.13;;;;;;;;;;7419485;19;20321;-82
2024/03/12 11:26:29;;;;;;;13.52;6.43;;;;;;;;;;7418763;19;20337;-83
2024/03/12 11:29:15;;;;;;;15.35;7.43;;;;;;;;;;7416833;19;19933;-82
2024/03/12 11:32:04;;;;;;;16.40;8.15;;;;;;;;;;7415765;19;20027;-82
2024/03/12 11:34:49;;;;;;;15.07;7.07;;;;;;;;;;7415744;19;19938;-82
2024/03/12 11:37:40;;;;;;;17.25;6.82;;;;;;;;;;7414998;19;19914;-83
2024/03/12 11:40:28;;;;;;;15.23;7.30;;;;;;;;;;7415400;19;19922;-83
2024/03/12 11:43:16;;;;;;;15.25;6.22;;;;;;;;;;7416600;19;19953;-82
2024/03/12 11:46:04;;;;;;;17.00;6.50;;;;;;;;;;7413423;19;20238;-82
2024/03/12 11:48:51;;;;;;;14.23;7.18;;;;;;;;;;7414751;19;19923;-82
2024/03/12 11:51:57;;;;;;;14.68;6.32;;;;;;;;;;7412511;19;19922;-83
2024/03/12 11:54:47;;;;;;;13.10;6.43;;;;;;;;;;7413567;19;20277;-82
2024/03/12 11:57:34;;;;;;;13.35;5.75;;;;;;;;;;7415401;19;20326;-82
2024/03/12 12:00:30;;;;;;;11.05;5.60;;;;;;;;;;7413777;19;19910;-82
2024/03/12 12:03:18;;;;;;;15.50;5.78;;;;;;;;;;7416569;19;19919;-82
2024/03/12 12:06:06;;;;;;;11.90;5.45;;;;;;;;;;7414346;19;19923;-82
2024/03/12 12:08:52;;;;;;;11.27;5.07;;;;;;;;;;7415278;19;20006;-82
2024/03/12 12:11:42;;;;;;;10.27;5.13;;;;;;;;;;7413970;19;19934;-82
2024/03/12 12:14:30;;;;;;;8.98;5.03;;;;;;;;;;7416442;19;19943;-82
2024/03/12 12:17:14;;;;;;;14.88;5.65;;;;;;;;;;7413814;19;19918;-82
2024/03/12 12:20:13;;;;;;;10.90;5.13;;;;;;;;;;7415471;19;19914;-82
2024/03/12 12:22:58;;;;;;;10.52;5.20;;;;;;;;;;7415736;19;19922;-82
2024/03/12 12:25:42;;;;;;;13.55;6.47;;;;;;;;;;7414233;19;19932;-82
2024/03/12 12:28:32;;;;;;;17.38;5.55;;;;;;;;;;7414923;19;19936;-83
2024/03/12 12:31:19;;;;;;;14.70;5.95;;;;;;;;;;7411767;19;20007;-82
2024/03/12 12:34:09;;;;;;;11.80;5.53;;;;;;;;;;7414906;19;19926;-82
2024/03/12 12:36:55;;;;;;;12.30;5.07;;;;;;;;;;7409802;19;19918;-83
2024/03/12 12:39:47;;;;;;;10.77;5.43;;;;;;;;;;7414582;19;19933;-82
2024/03/12 12:46:16;;;;;;;13.60;6.10;;;;;;;;;;7411860;19;19914;-81
2024/03/12 12:49:01;;;;;;;;;;;;;;;;;;7405358;19;20257;-79
2024/03/12 12:51:47;;;;;;;15.27;5.78;;;;;;;;;;7410725;19;20175;-79
2024/03/12 12:54:35;;;;;;;15.85;6.63;;;;;;;;;;7409600;19;19923;-79
2024/03/12 12:57:27;;;;;;;14.45;6.60;;;;;;;;;;7414723;19;19946;-80
2024/03/12 13:00:23;;;;;;;18.63;7.75;;;;;;;;;;7413525;19;20010;-80
2024/03/12 13:03:18;;;;;;;13.82;6.00;;;;;;;;;;7417454;19;19926;-79
2024/03/12 13:06:16;;;;;;;16.52;6.43;;;;;;;;;;7414409;19;19911;-80
2024/03/12 13:09:03;;;;;;;16.67;7.15;;;;;;;;;;7413325;19;20318;-79
2024/03/12 13:11:50;;;;;;;14.45;7.13;;;;;;;;;;7411071;19;19936;-79
2024/03/12 13:14:38;;;;;;;16.60;7.28;;;;;;;;;;7416262;19;20386;-79
2024/03/12 13:17:32;;;;;;;19.08;7.28;;;;;;;;;;7420608;19;19954;-79
2024/03/12 13:20:25;;;;;;;20.00;7.95;;;;;;;;;;7426343;19;19914;-79
2024/03/12 13:23:11;;;;;;;17.92;7.82;;;;;;;;;;7445768;19;19947;-79
2024/03/12 13:25:55;;;;;;;16.90;7.20;;;;;;;;;;7444990;19;19915;-79
2024/03/12 13:28:42;;;;;;;16.73;8.07;;;;;;;;;;7446016;19;19921;-79
2024/03/12 13:31:31;;;;;;;21.33;7.60;;;;;;;;;;7420310;19;19926;-78
2024/03/12 13:34:18;;;;;;;23.45;8.80;;;;;;;;;;7418257;19;19923;-79
2024/03/12 13:37:06;;;;;;;19.35;8.27;;;;;;;;;;7417943;19;19931;-80
2024/03/12 13:39:53;;;;;;;16.13;7.45;;;;;;;;;;7420282;19;20297;-78
2024/03/12 13:42:39;;;;;;;15.05;7.97;;;;;;;;;;7426834;19;19915;-79
2024/03/12 13:45:23;;;;;;;18.80;8.23;;;;;;;;;;7419894;19;19911;-79
2024/03/12 13:48:11;;;;;;;20.70;8.50;;;;;;;;;;7419119;19;19926;-79
2024/03/12 13:51:00;;;;;;;18.50;7.93;;;;;;;;;;7416801;19;19931;-79
2024/03/12 13:53:49;;;;;;;19.95;8.18;;;;;;;;;;7419159;19;19942;-79
2024/03/12 13:56:35;;;;;;;20.85;8.50;;;;;;;;;;7418637;19;19958;-79
2024/03/12 13:59:24;;;;;;;21.75;9.73;;;;;;;;;;7421377;19;19919;-79
2024/03/12 14:02:09;;;;;;;18.20;8.20;;;;;;;;;;7419372;19;19929;-79
2024/03/12 14:04:55;;;;;;;18.33;8.18;;;;;;;;;;7423002;19;19926;-79
2024/03/12 14:07:42;;;;;;;18.65;8.15;;;;;;;;;;7419169;19;19919;-78
2024/03/12 14:10:32;;;;;;;20.25;9.55;;;;;;;;;;7416864;19;19918;-79
2024/03/12 14:13:21;;;;;;;23.88;9.60;;;;;;;;;;7417146;19;19911;-78
2024/03/12 14:16:09;;;;;;;22.90;8.88;;;;;;;;;;7415209;19;19922;-78
2024/03/12 14:18:53;;;;;;;20.35;8.82;;;;;;;;;;7413475;19;19923;-78
2024/03/12 14:21:43;;;;;;;18.35;8.57;;;;;;;;;;7416633;19;19907;-79
2024/03/12 14:24:27;;;;;;;20.85;9.60;;;;;;;;;;7421858;19;19922;-78
2024/03/12 14:27:16;;;;;;;22.65;8.82;;;;;;;;;;7412480;19;19922;-78
2024/03/12 14:30:07;;;;;;;21.02;9.90;;;;;;;;;;7417589;19;19931;-79
2024/03/12 14:32:55;;;;;;;25.77;9.07;;;;;;;;;;7415812;19;19924;-79
2024/03/12 14:35:43;;;;;;;21.67;8.80;;;;;;;;;;7419336;19;19914;-79
2024/03/12 14:38:30;;;;;;;19.65;8.10;;;;;;;;;;7417265;19;20421;-79
2024/03/12 14:41:15;;;;;;;20.67;8.75;;;;;;;;;;7415266;19;19923;-78
2024/03/12 14:44:04;;;;;;;21.85;8.15;;;;;;;;;;7415758;19;19932;-79
2024/03/12 14:46:48;;;;;;;25.10;10.15;;;;;;;;;;7411207;19;20361;-79
2024/03/12 14:49:34;;;;;;;22.48;9.90;;;;;;;;;;7416419;19;19936;-79
2024/03/12 14:52:20;;;;;;;21.10;8.50;;;;;;;;;;7414248;19;19918;-79
2024/03/12 14:55:08;;;;;;;17.35;7.68;;;;;;;;;;7413302;19;19911;-78
2024/03/12 14:57:52;;;;;;;18.58;8.50;;;;;;;;;;7412482;19;19958;-79
2024/03/12 15:00:41;;;;;;;21.88;8.50;;;;;;;;;;7428230;19;19926;-78
2024/03/12 15:03:25;;;;;;;24.35;9.60;;;;;;;;;;7427608;19;20616;-77
2024/03/12 15:06:14;;;;;;;22.25;9.20;;;;;;;;;;7420876;19;19919;-78
2024/03/12 15:08:59;;;;;;;23.02;9.50;;;;;;;;;;7415533;19;19919;-78
2024/03/12 15:11:46;;;;;;;23.98;8.82;;;;;;;;;;7410011;19;19918;-78
2024/03/12 15:14:31;;;;;;;23.40;9.02;;;;;;;;;;7416130;19;20022;-79
2024/03/12 15:17:24;;;;;;;22.52;8.52;;;;;;;;;;7419630;19;19923;-78
2024/03/12 15:20:14;;;;;;;22.88;10.02;;;;;;;;;;7411824;19;19918;-79
2024/03/12 15:23:04;;;;;;;22.40;9.10;;;;;;;;;;7410553;19;19930;-79
2024/03/12 15:25:53;;;;;;;23.77;9.85;;;;;;;;;;7411944;19;19914;-78
2024/03/12 15:28:37;;;;;;;24.88;10.45;;;;;;;;;;7413953;19;19948;-79
2024/03/12 15:31:22;;;;;;;20.25;9.02;;;;;;;;;;7416027;19;20008;-77
2024/03/12 15:34:10;;;;;;;26.25;10.60;;;;;;;;;;7415519;19;19956;-78
2024/03/12 15:36:55;;;;;;;19.83;8.90;;;;;;;;;;7415781;19;20261;-79
2024/03/12 15:39:39;;;;;;;24.23;9.25;;;;;;;;;;7433571;19;19935;-79
2024/03/12 15:42:23;;;;;;;24.08;9.00;;;;;;;;;;7428056;19;19948;-78
2024/03/12 15:45:14;;;;;;;23.92;9.30;;;;;;;;;;7421913;19;19915;-79
2024/03/12 15:48:07;;;;;;;22.77;9.70;;;;;;;;;;7414382;19;19986;-79
2024/03/12 15:50:58;;;;;;;22.15;9.93;;;;;;;;;;7411078;19;19974;-79
2024/03/12 15:53:45;;;;;;;22.38;9.48;;;;;;;;;;7409754;19;19907;-79
2024/03/12 15:56:32;;;;;;;23.35;10.02;;;;;;;;;;7409559;19;20290;-79
2024/03/12 15:59:16;;;;;;;22.40;8.88;;;;;;;;;;7410073;19;19922;-79
2024/03/12 16:02:04;;;;;;;25.08;9.10;;;;;;;;;;7413461;19;20319;-79
2024/03/12 16:04:49;;;;;;;26.48;10.70;;;;;;;;;;7422136;19;19933;-79
2024/03/12 16:07:39;;;;;;;21.77;10.02;;;;;;;;;;7422196;19;19914;-78
2024/03/12 16:10:30;;;;;;;26.58;10.10;;;;;;;;;;7425743;19;19907;-78
2024/03/12 16:13:19;;;;;;;22.25;10.23;;;;;;;;;;7425426;19;19918;-78
2024/03/12 16:16:06;;;;;;;23.92;9.68;;;;;;;;;;7416925;19;20334;-79
2024/03/12 16:18:53;;;;;;;23.55;9.75;;;;;;;;;;7413943;19;19974;-79
2024/03/12 16:21:38;;;;;;;23.70;9.93;;;;;;;;;;7406522;19;19937;-78
2024/03/12 16:24:30;;;;;;;26.33;10.85;;;;;;;;;;7407914;19;19915;-79
2024/03/12 16:27:17;;;;;;;21.63;9.73;;;;;;;;;;7407715;19;19914;-79
2024/03/12 16:30:03;;;;;;;22.73;10.68;;;;;;;;;;7409407;19;19982;-79
2024/03/12 16:32:47;;;;;;;28.45;10.52;;;;;;;;;;7412794;19;19929;-79
2024/03/12 16:35:35;;;;;;;27.15;10.30;;;;;;;;;;7417785;19;19922;-80
2024/03/12 16:38:21;;;;;;;24.50;11.07;;;;;;;;;;7413243;19;19914;-79
2024/03/12 16:41:08;;;;;;;25.75;10.43;;;;;;;;;;7421333;19;19918;-79
2024/03/12 16:43:54;;;;;;;21.58;9.50;;;;;;;;;;7415036;19;19933;-79
2024/03/12 16:46:41;;;;;;;22.33;10.48;;;;;;;;;;7429302;19;20330;-78
2024/03/12 16:49:28;;;;;;;28.92;11.70;;;;;;;;;;7419388;19;19945;-79